createdAt,value
2017-10-18T00:00:43.035Z,0
2017-10-18T00:01:43.749Z,0
2017-10-18T00:02:44.477Z,0
2017-10-18T00:03:45.193Z,0
2017-10-18T00:04:45.926Z,0
2017-10-18T00:05:46.634Z,0
2017-10-18T00:06:47.348Z,0
2017-10-18T00:07:48.079Z,0
2017-10-18T00:08:48.793Z,0
2017-10-18T00:09:49.505Z,0
2017-10-18T00:10:50.219Z,0
2017-10-18T00:11:50.934Z,0
2017-10-18T00:12:51.666Z,0
2017-10-18T00:13:52.372Z,0
2017-10-18T00:14:53.087Z,0
2017-10-18T00:15:53.802Z,0
2017-10-18T00:16:54.516Z,0
2017-10-18T00:17:55.227Z,0
2017-10-18T00:18:55.954Z,0
2017-10-18T00:19:56.669Z,0
2017-10-18T00:20:57.383Z,0
2017-10-18T00:21:58.096Z,0
2017-10-18T00:22:58.823Z,0
2017-10-18T00:23:59.537Z,0
2017-10-18T00:25:00.267Z,0
2017-10-18T00:26:01.233Z,0
2017-10-18T00:27:01.948Z,0
2017-10-18T00:28:02.662Z,0
2017-10-18T00:29:03.377Z,0
2017-10-18T00:30:04.105Z,0
2017-10-18T00:31:05.068Z,0
2017-10-18T00:32:05.795Z,0
2017-10-18T00:33:06.511Z,0
2017-10-18T00:34:07.226Z,0
2017-10-18T00:35:07.938Z,0
2017-10-18T00:36:08.664Z,0
2017-10-18T00:37:09.393Z,0
2017-10-18T00:38:10.120Z,0
2017-10-18T00:39:10.835Z,0
2017-10-18T00:40:11.547Z,0
2017-10-18T00:41:12.276Z,0
2017-10-18T00:42:12.990Z,0
2017-10-18T00:43:13.704Z,0
2017-10-18T00:44:14.415Z,0
2017-10-18T00:45:15.129Z,0
2017-10-18T00:46:15.843Z,0
2017-10-18T00:47:16.557Z,0
2017-10-18T00:48:17.269Z,0
2017-10-18T00:49:17.983Z,0
2017-10-18T00:50:18.696Z,0
2017-10-18T00:51:19.423Z,0
2017-10-18T00:52:20.136Z,0
2017-10-18T00:53:20.849Z,0
2017-10-18T00:54:21.561Z,0
2017-10-18T00:55:22.276Z,0
2017-10-18T00:56:22.990Z,0
2017-10-18T00:57:23.719Z,0
2017-10-18T00:58:24.446Z,0
2017-10-18T00:59:25.176Z,0
2017-10-18T01:00:25.891Z,0
2017-10-18T01:01:26.605Z,0
2017-10-18T01:02:27.334Z,0
2017-10-18T01:03:28.048Z,0
2017-10-18T01:04:28.776Z,0
2017-10-18T01:05:29.503Z,0
2017-10-18T01:06:30.215Z,0
2017-10-18T01:07:30.944Z,0
2017-10-18T01:08:31.659Z,0
2017-10-18T01:09:32.386Z,0
2017-10-18T01:10:33.115Z,0
2017-10-18T01:11:33.830Z,0
2017-10-18T01:12:34.557Z,0
2017-10-18T01:13:35.287Z,0
2017-10-18T01:14:36.015Z,0
2017-10-18T01:15:36.729Z,0
2017-10-18T01:16:37.443Z,0
2017-10-18T01:17:38.157Z,0
2017-10-18T01:18:38.869Z,0
2017-10-18T01:19:39.586Z,0
2017-10-18T01:20:40.301Z,0
2017-10-18T01:21:41.014Z,0
2017-10-18T01:22:41.728Z,0
2017-10-18T01:23:42.442Z,0
2017-10-18T01:24:43.156Z,0
2017-10-18T01:25:43.868Z,0
2017-10-18T01:26:44.597Z,0
2017-10-18T01:27:45.329Z,0
2017-10-18T01:28:46.039Z,0
2017-10-18T01:29:46.753Z,0
2017-10-18T01:30:47.465Z,0
2017-10-18T01:31:48.179Z,0
2017-10-18T01:32:48.892Z,0
2017-10-18T01:33:49.607Z,0
2017-10-18T01:34:50.321Z,0
2017-10-18T01:35:51.047Z,0
2017-10-18T01:36:51.760Z,0
2017-10-18T01:37:52.475Z,0
2017-10-18T01:38:53.187Z,0
2017-10-18T01:39:53.901Z,0
2017-10-18T01:40:54.613Z,0
2017-10-18T01:41:55.342Z,0
2017-10-18T01:42:56.055Z,0
2017-10-18T01:43:56.782Z,0
2017-10-18T01:44:57.495Z,0
2017-10-18T01:45:58.209Z,0
2017-10-18T01:46:58.924Z,0
2017-10-18T01:47:59.637Z,0
2017-10-18T01:49:00.352Z,0
2017-10-18T01:50:01.064Z,0
2017-10-18T01:51:01.778Z,0
2017-10-18T01:52:02.491Z,0
2017-10-18T01:53:03.207Z,0
2017-10-18T01:54:03.936Z,0
2017-10-18T01:55:04.648Z,0
2017-10-18T01:56:05.360Z,0
2017-10-18T01:57:06.086Z,0
2017-10-18T01:58:06.799Z,0
2017-10-18T01:59:07.514Z,0
2017-10-18T02:00:08.232Z,0
2017-10-18T02:01:08.954Z,0
2017-10-18T02:02:09.683Z,0
2017-10-18T02:03:10.395Z,0
2017-10-18T02:04:11.108Z,0
2017-10-18T02:05:11.819Z,0
2017-10-18T02:06:12.535Z,0
2017-10-18T02:07:13.250Z,0
2017-10-18T02:08:13.967Z,0
2017-10-18T02:09:14.676Z,0
2017-10-18T02:10:15.405Z,0
2017-10-18T02:11:16.126Z,0
2017-10-18T02:12:16.831Z,0
2017-10-18T02:13:17.547Z,0
2017-10-18T02:14:18.276Z,0
2017-10-18T02:15:19.000Z,0
2017-10-18T02:16:19.721Z,0
2017-10-18T02:17:20.435Z,0
2017-10-18T02:18:21.149Z,0
2017-10-18T02:19:21.863Z,0
2017-10-18T02:20:22.575Z,0
2017-10-18T02:21:23.288Z,0
2017-10-18T02:22:24.002Z,0
2017-10-18T02:23:24.728Z,0
2017-10-18T02:24:25.450Z,0
2017-10-18T02:25:26.160Z,0
2017-10-18T02:26:26.874Z,0
2017-10-18T02:27:27.590Z,0
2017-10-18T02:28:28.304Z,0
2017-10-18T02:29:29.017Z,0
2017-10-18T02:30:29.732Z,0
2017-10-18T02:31:30.462Z,0
2017-10-18T02:32:31.189Z,0
2017-10-18T02:33:31.903Z,0
2017-10-18T02:34:32.617Z,0
2017-10-18T02:35:33.331Z,0
2017-10-18T02:36:34.060Z,0
2017-10-18T02:37:34.776Z,0
2017-10-18T02:38:35.489Z,0
2017-10-18T02:39:36.202Z,0
2017-10-18T02:40:36.915Z,0
2017-10-18T02:41:37.630Z,0
2017-10-18T02:42:38.344Z,0
2017-10-18T02:43:39.074Z,0
2017-10-18T02:44:39.800Z,0
2017-10-18T02:45:40.513Z,0
2017-10-18T02:46:41.226Z,0
2017-10-18T02:47:41.942Z,0
2017-10-18T02:48:42.653Z,0
2017-10-18T02:49:43.369Z,0
2017-10-18T02:50:44.085Z,0
2017-10-18T02:51:44.813Z,0
2017-10-18T02:52:45.527Z,0
2017-10-18T02:53:46.257Z,0
2017-10-18T02:54:46.972Z,0
2017-10-18T02:55:47.685Z,0
2017-10-18T02:56:48.398Z,0
2017-10-18T02:57:49.111Z,0
2017-10-18T02:58:49.838Z,0
2017-10-18T02:59:50.566Z,0
2017-10-18T03:00:51.280Z,0
2017-10-18T03:01:51.993Z,0
2017-10-18T03:02:52.707Z,0
2017-10-18T03:03:53.421Z,0
2017-10-18T03:04:54.152Z,0
2017-10-18T03:05:54.889Z,0
2017-10-18T03:06:55.580Z,0
2017-10-18T03:07:56.293Z,0
2017-10-18T03:08:57.007Z,0
2017-10-18T03:09:57.721Z,0
2017-10-18T03:10:58.436Z,0
2017-10-18T03:11:59.149Z,0
2017-10-18T03:12:59.878Z,0
2017-10-18T03:14:00.594Z,0
2017-10-18T03:15:01.304Z,0
2017-10-18T03:16:02.014Z,0
2017-10-18T03:17:02.738Z,0
2017-10-18T03:18:03.449Z,0
2017-10-18T03:19:04.175Z,0
2017-10-18T03:20:04.889Z,0
2017-10-18T03:21:05.610Z,0
2017-10-18T03:22:06.323Z,0
2017-10-18T03:23:07.047Z,0
2017-10-18T03:24:07.757Z,0
2017-10-18T03:25:08.468Z,0
2017-10-18T03:26:09.193Z,0
2017-10-18T03:27:09.906Z,0
2017-10-18T03:28:10.630Z,0
2017-10-18T03:29:11.356Z,0
2017-10-18T03:30:12.067Z,0
2017-10-18T03:31:12.780Z,0
2017-10-18T03:32:13.492Z,0
2017-10-18T03:33:14.206Z,0
2017-10-18T03:34:14.934Z,0
2017-10-18T03:35:15.644Z,0
2017-10-18T03:36:16.368Z,0
2017-10-18T03:37:17.093Z,0
2017-10-18T03:38:17.815Z,0
2017-10-18T03:39:18.527Z,0
2017-10-18T03:40:19.240Z,0
2017-10-18T03:41:19.951Z,0
2017-10-18T03:42:20.664Z,0
2017-10-18T03:43:21.376Z,0
2017-10-18T03:44:22.086Z,0
2017-10-18T03:45:22.798Z,0
2017-10-18T03:46:23.510Z,0
2017-10-18T03:47:24.222Z,0
2017-10-18T03:48:24.952Z,0
2017-10-18T03:49:25.663Z,0
2017-10-18T03:50:26.385Z,0
2017-10-18T03:51:27.099Z,0
2017-10-18T03:52:27.824Z,0
2017-10-18T03:53:28.538Z,0
2017-10-18T03:54:29.251Z,0
2017-10-18T03:55:29.961Z,0
2017-10-18T03:56:30.674Z,0
2017-10-18T03:57:31.385Z,0
2017-10-18T03:58:32.097Z,0
2017-10-18T03:59:32.818Z,0
2017-10-18T04:00:33.531Z,0
2017-10-18T04:01:34.244Z,0
2017-10-18T04:02:34.966Z,0
2017-10-18T04:03:35.691Z,0
2017-10-18T04:04:36.415Z,0
2017-10-18T04:05:37.142Z,0
2017-10-18T04:06:37.863Z,0
2017-10-18T04:07:38.575Z,0
2017-10-18T04:08:39.286Z,0
2017-10-18T04:09:39.995Z,0
2017-10-18T04:10:40.718Z,0
2017-10-18T04:11:41.429Z,0
2017-10-18T04:12:42.154Z,0
2017-10-18T04:13:42.866Z,0
2017-10-18T04:14:43.579Z,0
2017-10-18T04:15:44.290Z,0
2017-10-18T04:16:45.004Z,0
2017-10-18T04:17:45.715Z,0
2017-10-18T04:18:46.427Z,0
2017-10-18T04:19:47.144Z,0
2017-10-18T04:20:47.862Z,0
2017-10-18T04:21:48.589Z,0
2017-10-18T04:22:49.301Z,0
2017-10-18T04:23:50.012Z,0
2017-10-18T04:24:50.724Z,0
2017-10-18T04:25:51.435Z,0
2017-10-18T04:26:52.147Z,0
2017-10-18T04:27:52.857Z,0
2017-10-18T04:28:53.581Z,0
2017-10-18T04:29:54.292Z,0
2017-10-18T04:30:55.008Z,0
2017-10-18T04:31:55.716Z,0
2017-10-18T04:32:56.443Z,0
2017-10-18T04:33:57.155Z,0
2017-10-18T04:34:57.879Z,0
2017-10-18T04:35:58.591Z,0
2017-10-18T04:36:59.303Z,0
2017-10-18T04:38:00.016Z,0
2017-10-18T04:39:00.726Z,0
2017-10-18T04:40:01.437Z,0
2017-10-18T04:41:02.150Z,0
2017-10-18T04:42:02.860Z,0
2017-10-18T04:43:03.572Z,0
2017-10-18T04:44:04.283Z,0
2017-10-18T04:45:04.995Z,0
2017-10-18T04:46:05.704Z,0
2017-10-18T04:47:06.416Z,0
2017-10-18T04:48:07.127Z,0
2017-10-18T04:49:07.852Z,0
2017-10-18T04:50:08.563Z,0
2017-10-18T04:51:09.274Z,0
2017-10-18T04:52:09.985Z,0
2017-10-18T04:53:10.716Z,0
2017-10-18T04:54:11.430Z,0
2017-10-18T04:55:12.142Z,0
2017-10-18T04:56:12.855Z,0
2017-10-18T04:57:13.569Z,0
2017-10-18T04:58:14.292Z,0
2017-10-18T04:59:15.002Z,0
2017-10-18T05:00:15.714Z,0
2017-10-18T05:01:16.426Z,0
2017-10-18T05:02:17.138Z,0
2017-10-18T05:03:17.850Z,0
2017-10-18T05:04:18.561Z,0
2017-10-18T05:05:19.286Z,0
2017-10-18T05:06:20.010Z,0
2017-10-18T05:07:20.721Z,0
2017-10-18T05:08:21.432Z,0
2017-10-18T05:09:22.155Z,0
2017-10-18T05:10:22.877Z,0
2017-10-18T05:11:23.589Z,0
2017-10-18T05:12:24.318Z,0
2017-10-18T05:13:25.038Z,0
2017-10-18T05:14:25.759Z,0
2017-10-18T05:15:26.472Z,0
2017-10-18T05:16:27.186Z,0
2017-10-18T05:17:27.908Z,0
2017-10-18T05:18:28.622Z,0
2017-10-18T05:19:29.329Z,0
2017-10-18T05:20:30.042Z,0
2017-10-18T05:21:30.753Z,0
2017-10-18T05:22:31.463Z,0
2017-10-18T05:23:32.173Z,0
2017-10-18T05:24:32.883Z,0
2017-10-18T05:25:33.594Z,0
2017-10-18T05:26:34.317Z,0
2017-10-18T05:27:35.033Z,0
2017-10-18T05:28:35.738Z,0
2017-10-18T05:29:36.449Z,0
2017-10-18T05:30:37.160Z,0
2017-10-18T05:31:37.871Z,0
2017-10-18T05:32:38.584Z,4
2017-10-18T05:33:39.298Z,4
2017-10-18T05:34:40.007Z,4
2017-10-18T05:35:40.717Z,4
2017-10-18T05:36:41.429Z,4
2017-10-18T05:37:42.143Z,4
2017-10-18T05:38:42.856Z,8
2017-10-18T05:39:43.568Z,8
2017-10-18T05:40:44.289Z,8
2017-10-18T05:41:45.014Z,12
2017-10-18T05:42:45.727Z,12
2017-10-18T05:43:46.440Z,16
2017-10-18T05:44:47.151Z,20
2017-10-18T05:45:47.865Z,20
2017-10-18T05:46:48.578Z,28
2017-10-18T05:47:49.306Z,28
2017-10-18T05:48:50.028Z,36
2017-10-18T05:49:50.739Z,44
2017-10-18T05:50:51.454Z,52
2017-10-18T05:51:52.183Z,60
2017-10-18T05:52:52.895Z,72
2017-10-18T05:53:53.619Z,80
2017-10-18T05:54:54.331Z,96
2017-10-18T05:55:55.044Z,112
2017-10-18T05:56:55.757Z,124
2017-10-18T05:57:56.469Z,140
2017-10-18T05:58:57.185Z,148
2017-10-18T05:59:57.901Z,160
2017-10-18T06:00:58.627Z,176
2017-10-18T06:01:59.342Z,188
2017-10-18T06:03:00.056Z,200
2017-10-18T06:04:00.771Z,212
2017-10-18T06:05:01.485Z,232
2017-10-18T06:06:02.202Z,248
2017-10-18T06:07:02.916Z,260
2017-10-18T06:08:03.645Z,272
2017-10-18T06:09:04.342Z,296
2017-10-18T06:10:05.056Z,320
2017-10-18T06:11:05.785Z,344
2017-10-18T06:12:06.502Z,368
2017-10-18T06:13:07.219Z,392
2017-10-18T06:14:07.934Z,420
2017-10-18T06:15:08.650Z,452
2017-10-18T06:16:09.366Z,488
2017-10-18T06:17:10.079Z,532
2017-10-18T06:18:10.795Z,572
2017-10-18T06:19:11.507Z,616
2017-10-18T06:20:12.235Z,656
2017-10-18T06:21:12.949Z,696
2017-10-18T06:22:13.664Z,744
2017-10-18T06:23:14.381Z,804
2017-10-18T06:24:15.095Z,848
2017-10-18T06:25:15.815Z,876
2017-10-18T06:26:16.529Z,892
2017-10-18T06:27:17.255Z,940
2017-10-18T06:28:17.981Z,988
2017-10-18T06:29:18.699Z,1012
2017-10-18T06:30:19.418Z,1036
2017-10-18T06:31:20.132Z,1052
2017-10-18T06:32:20.848Z,1096
2017-10-18T06:33:21.565Z,1140
2017-10-18T06:34:22.283Z,1172
2017-10-18T06:35:23.011Z,1236
2017-10-18T06:36:23.727Z,1324
2017-10-18T06:37:24.444Z,1420
2017-10-18T06:38:25.159Z,1520
2017-10-18T06:39:25.890Z,1616
2017-10-18T06:40:26.608Z,1676
2017-10-18T06:41:27.323Z,1804
2017-10-18T06:42:28.041Z,1932
2017-10-18T06:43:28.770Z,2080
2017-10-18T06:44:29.488Z,2236
2017-10-18T06:45:30.202Z,2364
2017-10-18T06:46:30.918Z,2492
2017-10-18T06:47:31.637Z,2604
2017-10-18T06:48:32.368Z,2700
2017-10-18T06:49:33.083Z,2820
2017-10-18T06:50:33.810Z,2896
2017-10-18T06:51:34.528Z,3084
2017-10-18T06:52:35.245Z,3164
2017-10-18T06:53:35.975Z,3200
2017-10-18T06:54:36.693Z,3328
2017-10-18T06:55:37.423Z,3296
2017-10-18T06:56:38.142Z,3400
2017-10-18T06:57:38.868Z,3416
2017-10-18T06:58:39.592Z,3544
2017-10-18T06:59:40.307Z,3516
2017-10-18T07:00:41.027Z,3636
2017-10-18T07:01:41.745Z,3748
2017-10-18T07:02:42.462Z,3852
2017-10-18T07:03:43.194Z,3788
2017-10-18T07:04:43.913Z,4100
2017-10-18T07:05:44.644Z,3964
2017-10-18T07:06:45.374Z,4100
2017-10-18T07:07:46.092Z,4232
2017-10-18T07:08:46.823Z,3912
2017-10-18T07:09:47.541Z,4188
2017-10-18T07:10:48.260Z,4172
2017-10-18T07:11:48.978Z,4224
2017-10-18T07:12:49.698Z,4380
2017-10-18T07:13:50.417Z,4656
2017-10-18T07:14:51.148Z,4704
2017-10-18T07:15:51.868Z,4552
2017-10-18T07:16:52.586Z,4748
2017-10-18T07:17:53.309Z,5256
2017-10-18T07:18:54.026Z,5300
2017-10-18T07:19:54.746Z,5360
2017-10-18T07:20:55.461Z,5732
2017-10-18T07:21:56.190Z,5924
2017-10-18T07:22:56.912Z,5672
2017-10-18T07:23:57.645Z,6292
2017-10-18T07:24:58.362Z,6384
2017-10-18T07:25:59.080Z,5476
2017-10-18T07:26:59.812Z,5488
2017-10-18T07:28:00.530Z,5664
2017-10-18T07:29:01.248Z,5508
2017-10-18T07:30:01.966Z,5424
2017-10-18T07:31:02.686Z,5840
2017-10-18T07:32:03.416Z,4996
2017-10-18T07:33:04.136Z,6464
2017-10-18T07:34:04.853Z,5480
2017-10-18T07:35:05.573Z,5444
2017-10-18T07:36:06.292Z,5080
2017-10-18T07:37:07.010Z,5696
2017-10-18T07:38:07.729Z,5400
2017-10-18T07:39:08.447Z,6092
2017-10-18T07:40:09.165Z,6020
2017-10-18T07:41:09.886Z,6436
2017-10-18T07:42:10.603Z,6416
2017-10-18T07:43:11.320Z,5872
2017-10-18T07:44:12.038Z,5976
2017-10-18T07:45:12.757Z,4824
2017-10-18T07:46:13.474Z,4844
2017-10-18T07:47:14.212Z,5904
2017-10-18T07:48:14.915Z,4976
2017-10-18T07:49:15.634Z,5488
2017-10-18T07:50:16.352Z,5524
2017-10-18T07:51:17.081Z,5372
2017-10-18T07:52:17.802Z,5180
2017-10-18T07:53:18.520Z,5368
2017-10-18T07:54:19.256Z,4240
2017-10-18T07:55:19.970Z,4996
2017-10-18T07:56:20.689Z,4952
2017-10-18T07:57:21.415Z,4532
2017-10-18T07:58:22.125Z,5020
2017-10-18T07:59:22.843Z,4584
2017-10-18T08:00:23.561Z,5212
2017-10-18T08:01:24.280Z,4596
2017-10-18T08:02:25.009Z,4812
2017-10-18T08:03:25.729Z,6100
2017-10-18T08:04:26.449Z,6572
2017-10-18T08:05:27.168Z,5168
2017-10-18T08:06:27.886Z,6012
2017-10-18T08:07:28.607Z,6724
2017-10-18T08:08:29.327Z,7220
2017-10-18T08:09:30.047Z,5992
2017-10-18T08:10:30.763Z,8032
2017-10-18T08:11:31.483Z,7524
2017-10-18T08:12:32.214Z,6620
2017-10-18T08:13:32.943Z,7164
2017-10-18T08:14:33.661Z,7604
2017-10-18T08:15:34.383Z,7112
2017-10-18T08:16:35.102Z,7256
2017-10-18T08:17:35.821Z,8024
2017-10-18T08:18:36.561Z,7384
2017-10-18T08:19:37.275Z,6988
2017-10-18T08:20:37.992Z,7260
2017-10-18T08:21:38.713Z,7196
2017-10-18T08:22:39.446Z,8260
2017-10-18T08:23:40.166Z,9868
2017-10-18T08:24:40.885Z,8132
2017-10-18T08:25:41.605Z,9300
2017-10-18T08:26:42.331Z,8736
2017-10-18T08:27:43.043Z,9232
2017-10-18T08:28:43.765Z,7664
2017-10-18T08:29:44.488Z,10476
2017-10-18T08:30:45.209Z,10024
2017-10-18T08:31:45.941Z,9744
2017-10-18T08:32:46.663Z,10336
2017-10-18T08:33:47.382Z,7996
2017-10-18T08:34:48.112Z,12728
2017-10-18T08:35:48.834Z,10524
2017-10-18T08:36:49.570Z,12452
2017-10-18T08:37:50.291Z,9404
2017-10-18T08:38:51.010Z,13744
2017-10-18T08:39:51.734Z,10440
2017-10-18T08:40:52.453Z,19040
2017-10-18T08:41:53.184Z,11048
2017-10-18T08:42:53.923Z,13672
2017-10-18T08:43:54.652Z,18208
2017-10-18T08:44:55.375Z,12620
2017-10-18T08:45:56.097Z,15296
2017-10-18T08:46:56.819Z,15384
2017-10-18T08:47:57.551Z,14064
2017-10-18T08:48:58.273Z,17984
2017-10-18T08:49:59.007Z,16928
2017-10-18T08:50:59.731Z,20896
2017-10-18T08:52:00.453Z,19776
2017-10-18T08:53:01.177Z,15568
2017-10-18T08:54:01.901Z,13580
2017-10-18T08:55:02.622Z,14164
2017-10-18T08:56:03.356Z,17888
2017-10-18T08:57:04.081Z,17728
2017-10-18T08:58:04.803Z,20704
2017-10-18T08:59:05.527Z,14996
2017-10-18T09:00:06.257Z,16416
2017-10-18T09:01:06.974Z,19872
2017-10-18T09:02:07.700Z,17120
2017-10-18T09:03:08.423Z,22784
2017-10-18T09:04:09.156Z,22912
2017-10-18T09:05:09.875Z,20672
2017-10-18T09:06:10.595Z,17504
2017-10-18T09:07:11.321Z,20032
2017-10-18T09:08:12.046Z,15564
2017-10-18T09:09:12.771Z,19648
2017-10-18T09:10:13.505Z,17440
2017-10-18T09:11:14.234Z,25440
2017-10-18T09:12:14.956Z,18752
2017-10-18T09:13:15.681Z,18240
2017-10-18T09:14:16.407Z,18784
2017-10-18T09:15:17.131Z,22752
2017-10-18T09:16:17.858Z,17568
2017-10-18T09:17:18.583Z,20000
2017-10-18T09:18:19.309Z,27200
2017-10-18T09:19:20.035Z,18304
2017-10-18T09:20:20.761Z,23328
2017-10-18T09:21:21.501Z,17024
2017-10-18T09:22:22.227Z,15292
2017-10-18T09:23:22.952Z,15476
2017-10-18T09:24:23.677Z,15572
2017-10-18T09:25:24.403Z,19904
2017-10-18T09:26:25.127Z,14948
2017-10-18T09:27:25.852Z,21856
2017-10-18T09:28:26.588Z,18880
2017-10-18T09:29:27.314Z,21664
2017-10-18T09:30:28.040Z,22464
2017-10-18T09:31:28.765Z,22656
2017-10-18T09:32:29.492Z,19584
2017-10-18T09:33:30.215Z,19776
2017-10-18T09:34:30.940Z,18080
2017-10-18T09:35:31.667Z,18592
2017-10-18T09:36:32.391Z,15624
2017-10-18T09:37:33.119Z,15840
2017-10-18T09:38:33.851Z,19136
2017-10-18T09:39:34.567Z,21504
2017-10-18T09:40:35.306Z,30784
2017-10-18T09:41:36.032Z,28576
2017-10-18T09:42:36.758Z,20768
2017-10-18T09:43:37.483Z,30848
2017-10-18T09:44:38.210Z,25504
2017-10-18T09:45:38.937Z,18048
2017-10-18T09:46:39.663Z,16256
2017-10-18T09:47:40.390Z,20640
2017-10-18T09:48:41.116Z,29568
2017-10-18T09:49:41.843Z,20096
2017-10-18T09:50:42.572Z,14912
2017-10-18T09:51:43.310Z,11436
2017-10-18T09:52:44.038Z,12212
2017-10-18T09:53:44.764Z,13204
2017-10-18T09:54:45.492Z,15784
2017-10-18T09:55:46.217Z,17600
2017-10-18T09:56:46.941Z,20224
2017-10-18T09:57:47.668Z,28064
2017-10-18T09:58:48.395Z,42816
2017-10-18T09:59:49.137Z,37664
2017-10-18T10:00:49.864Z,21120
2017-10-18T10:01:50.592Z,18656
2017-10-18T10:02:51.318Z,21440
2017-10-18T10:03:52.046Z,36608
2017-10-18T10:04:52.776Z,38048
2017-10-18T10:05:53.513Z,26016
2017-10-18T10:06:54.243Z,25888
2017-10-18T10:07:54.989Z,30432
2017-10-18T10:08:55.698Z,41344
2017-10-18T10:09:56.428Z,44032
2017-10-18T10:10:57.172Z,43776
2017-10-18T10:11:57.905Z,38592
2017-10-18T10:12:58.651Z,39488
2017-10-18T10:13:59.387Z,40800
2017-10-18T10:15:00.120Z,42848
2017-10-18T10:16:00.852Z,43776
2017-10-18T10:17:01.589Z,43040
2017-10-18T10:18:02.323Z,44384
2017-10-18T10:19:03.056Z,44032
2017-10-18T10:20:03.790Z,43680
2017-10-18T10:21:04.528Z,42048
2017-10-18T10:22:05.265Z,40288
2017-10-18T10:23:05.995Z,40512
2017-10-18T10:24:06.731Z,40704
2017-10-18T10:25:07.457Z,41472
2017-10-18T10:26:08.193Z,41632
2017-10-18T10:27:08.936Z,42688
2017-10-18T10:28:09.668Z,42432
2017-10-18T10:29:10.401Z,41184
2017-10-18T10:30:11.145Z,40256
2017-10-18T10:31:11.879Z,40384
2017-10-18T10:32:12.611Z,40576
2017-10-18T10:33:13.344Z,41056
2017-10-18T10:34:14.079Z,41440
2017-10-18T10:35:14.824Z,41824
2017-10-18T10:36:15.558Z,41696
2017-10-18T10:37:16.292Z,41376
2017-10-18T10:38:17.033Z,41824
2017-10-18T10:39:17.764Z,42080
2017-10-18T10:40:18.498Z,41504
2017-10-18T10:41:19.230Z,41440
2017-10-18T10:42:19.965Z,40800
2017-10-18T10:43:20.700Z,39744
2017-10-18T10:44:21.434Z,38912
2017-10-18T10:45:22.168Z,39616
2017-10-18T10:46:22.902Z,38976
2017-10-18T10:47:23.636Z,38720
2017-10-18T10:48:24.374Z,39392
2017-10-18T10:49:25.127Z,40352
2017-10-18T10:50:25.843Z,40960
2017-10-18T10:51:26.578Z,43040
2017-10-18T10:52:27.313Z,43008
2017-10-18T10:53:28.049Z,43264
2017-10-18T10:54:28.783Z,43520
2017-10-18T10:55:29.518Z,42624
2017-10-18T10:56:30.254Z,42336
2017-10-18T10:57:30.989Z,42304
2017-10-18T10:58:31.726Z,41952
2017-10-18T10:59:32.461Z,42016
2017-10-18T11:00:33.196Z,41696
2017-10-18T11:01:33.931Z,40992
2017-10-18T11:02:34.669Z,40384
2017-10-18T11:03:35.418Z,40128
2017-10-18T11:04:36.154Z,40320
2017-10-18T11:05:36.889Z,40640
2017-10-18T11:06:37.639Z,40704
2017-10-18T11:07:38.376Z,41056
2017-10-18T11:08:39.111Z,41376
2017-10-18T11:09:39.847Z,40608
2017-10-18T11:10:40.583Z,40352
2017-10-18T11:11:41.319Z,40928
2017-10-18T11:12:42.061Z,41216
2017-10-18T11:13:42.796Z,40928
2017-10-18T11:14:43.533Z,41280
2017-10-18T11:15:44.266Z,41344
2017-10-18T11:16:45.012Z,40320
2017-10-18T11:17:45.750Z,40672
2017-10-18T11:18:46.490Z,40704
2017-10-18T11:19:47.230Z,41440
2017-10-18T11:20:47.969Z,41440
2017-10-18T11:21:48.712Z,42144
2017-10-18T11:22:49.451Z,42976
2017-10-18T11:23:50.190Z,43424
2017-10-18T11:24:50.932Z,44064
2017-10-18T11:25:51.673Z,43488
2017-10-18T11:26:52.418Z,42240
2017-10-18T11:27:53.158Z,41696
2017-10-18T11:28:53.900Z,42016
2017-10-18T11:29:54.643Z,42912
2017-10-18T11:30:55.399Z,44064
2017-10-18T11:31:56.140Z,44224
2017-10-18T11:32:56.899Z,43872
2017-10-18T11:33:57.645Z,42816
2017-10-18T11:34:58.385Z,43136
2017-10-18T11:35:59.126Z,42944
2017-10-18T11:36:59.883Z,43072
2017-10-18T11:38:00.620Z,42784
2017-10-18T11:39:01.357Z,42496
2017-10-18T11:40:02.099Z,42304
2017-10-18T11:41:02.841Z,42336
2017-10-18T11:42:03.582Z,43136
2017-10-18T11:43:04.326Z,43136
2017-10-18T11:44:05.071Z,42880
2017-10-18T11:45:05.810Z,42560
2017-10-18T11:46:06.553Z,41792
2017-10-18T11:47:07.293Z,41760
2017-10-18T11:48:08.053Z,41664
2017-10-18T11:49:08.805Z,41696
2017-10-18T11:50:09.549Z,41696
2017-10-18T11:51:10.294Z,40864
2017-10-18T11:52:11.046Z,40128
2017-10-18T11:53:11.799Z,40096
2017-10-18T11:54:12.540Z,40960
2017-10-18T11:55:13.284Z,41408
2017-10-18T11:56:14.035Z,41536
2017-10-18T11:57:14.776Z,40704
2017-10-18T11:58:15.526Z,41312
2017-10-18T11:59:16.267Z,41376
2017-10-18T12:00:17.007Z,41408
2017-10-18T12:01:17.748Z,42112
2017-10-18T12:02:18.495Z,41280
2017-10-18T12:03:19.240Z,40544
2017-10-18T12:04:19.993Z,40352
2017-10-18T12:05:20.733Z,39776
2017-10-18T12:06:21.485Z,39328
2017-10-18T12:07:22.223Z,37600
2017-10-18T12:08:22.959Z,36992
2017-10-18T12:09:23.702Z,36928
2017-10-18T12:10:24.454Z,38048
2017-10-18T12:11:25.195Z,39232
2017-10-18T12:12:25.940Z,39936
2017-10-18T12:13:26.685Z,38880
2017-10-18T12:14:27.424Z,38784
2017-10-18T12:15:28.167Z,37600
2017-10-18T12:16:28.901Z,37376
2017-10-18T12:17:29.639Z,37760
2017-10-18T12:18:30.384Z,37344
2017-10-18T12:19:31.123Z,37056
2017-10-18T12:20:31.874Z,36704
2017-10-18T12:21:32.626Z,36256
2017-10-18T12:22:33.365Z,34976
2017-10-18T12:23:34.116Z,34752
2017-10-18T12:24:34.856Z,34368
2017-10-18T12:25:35.599Z,35136
2017-10-18T12:26:36.340Z,35776
2017-10-18T12:27:37.089Z,35712
2017-10-18T12:28:37.827Z,35712
2017-10-18T12:29:38.564Z,36192
2017-10-18T12:30:39.305Z,35712
2017-10-18T12:31:40.039Z,34432
2017-10-18T12:32:40.779Z,33856
2017-10-18T12:33:41.516Z,32608
2017-10-18T12:34:42.270Z,32832
2017-10-18T12:35:43.017Z,32128
2017-10-18T12:36:43.757Z,31136
2017-10-18T12:37:44.507Z,30624
2017-10-18T12:38:45.247Z,30464
2017-10-18T12:39:45.982Z,19264
2017-10-18T12:40:46.730Z,33728
2017-10-18T12:41:47.464Z,33504
2017-10-18T12:42:48.201Z,32512
2017-10-18T12:43:48.949Z,32192
2017-10-18T12:44:49.691Z,31776
2017-10-18T12:45:50.430Z,31424
2017-10-18T12:46:51.166Z,30592
2017-10-18T12:47:51.908Z,29760
2017-10-18T12:48:52.660Z,29888
2017-10-18T12:49:53.399Z,29536
2017-10-18T12:50:54.137Z,29856
2017-10-18T12:51:54.884Z,30368
2017-10-18T12:52:55.621Z,30368
2017-10-18T12:53:56.363Z,30528
2017-10-18T12:54:57.109Z,29536
2017-10-18T12:55:57.857Z,29408
2017-10-18T12:56:58.597Z,29376
2017-10-18T12:57:59.336Z,29408
2017-10-18T12:59:00.080Z,29792
2017-10-18T13:00:00.829Z,30304
2017-10-18T13:01:01.568Z,30752
2017-10-18T13:02:02.308Z,30464
2017-10-18T13:03:03.045Z,30080
2017-10-18T13:04:03.791Z,29472
2017-10-18T13:05:04.523Z,28992
2017-10-18T13:06:05.274Z,28672
2017-10-18T13:07:06.013Z,28544
2017-10-18T13:08:06.750Z,28224
2017-10-18T13:09:07.493Z,27968
2017-10-18T13:10:08.233Z,27712
2017-10-18T13:11:08.969Z,27712
2017-10-18T13:12:09.713Z,27488
2017-10-18T13:13:10.464Z,27296
2017-10-18T13:14:11.199Z,27424
2017-10-18T13:15:11.948Z,27328
2017-10-18T13:16:12.685Z,27872
2017-10-18T13:17:13.426Z,28192
2017-10-18T13:18:14.166Z,28000
2017-10-18T13:19:14.912Z,26688
2017-10-18T13:20:15.647Z,26304
2017-10-18T13:21:16.384Z,26592
2017-10-18T13:22:17.141Z,25728
2017-10-18T13:23:17.877Z,19040
2017-10-18T13:24:18.607Z,13656
2017-10-18T13:25:19.360Z,19072
2017-10-18T13:26:20.103Z,21792
2017-10-18T13:27:20.834Z,23584
2017-10-18T13:28:21.568Z,24384
2017-10-18T13:29:22.300Z,24480
2017-10-18T13:30:23.034Z,24544
2017-10-18T13:31:23.768Z,24320
2017-10-18T13:32:24.502Z,23840
2017-10-18T13:33:25.246Z,22656
2017-10-18T13:34:25.976Z,22240
2017-10-18T13:35:26.708Z,22688
2017-10-18T13:36:27.443Z,22592
2017-10-18T13:37:28.176Z,21888
2017-10-18T13:38:28.906Z,22240
2017-10-18T13:39:29.639Z,22176
2017-10-18T13:40:30.372Z,21696
2017-10-18T13:41:31.103Z,20896
2017-10-18T13:42:31.847Z,20288
2017-10-18T13:43:32.579Z,20064
2017-10-18T13:44:33.313Z,19776
2017-10-18T13:45:34.043Z,19424
2017-10-18T13:46:34.776Z,19072
2017-10-18T13:47:35.509Z,19008
2017-10-18T13:48:36.239Z,18912
2017-10-18T13:49:36.970Z,18720
2017-10-18T13:50:37.712Z,18624
2017-10-18T13:51:38.456Z,18656
2017-10-18T13:52:39.188Z,18368
2017-10-18T13:53:39.918Z,17888